sensor_id;sensor_type;location;lat;lon;timestamp;temperature;humidity
4826;DHT22;2427;50.934;6.776;2023-04-01T00:01:37;10.40;1.00
4826;DHT22;2427;50.934;6.776;2023-04-01T00:04:03;10.40;1.00
4826;DHT22;2427;50.934;6.776;2023-04-01T00:06:29;10.50;1.00
4826;DHT22;2427;50.934;6.776;2023-04-01T00:08:55;10.50;1.00
4826;DHT22;2427;50.934;6.776;2023-04-01T00:11:20;10.50;1.00
4826;DHT22;2427;50.934;6.776;2023-04-01T00:13:47;10.40;1.00
4826;DHT22;2427;50.934;6.776;2023-04-01T00:16:13;10.50;1.00
4826;DHT22;2427;50.934;6.776;2023-04-01T00:18:39;10.40;1.00
4826;DHT22;2427;50.934;6.776;2023-04-01T00:21:05;10.40;1.00
4826;DHT22;2427;50.934;6.776;2023-04-01T00:23:30;10.50;1.00
4826;DHT22;2427;50.934;6.776;2023-04-01T00:25:59;10.50;1.00
4826;DHT22;2427;50.934;6.776;2023-04-01T00:28:26;10.50;1.00
4826;DHT22;2427;50.934;6.776;2023-04-01T00:30:52;10.50;1.00
4826;DHT22;2427;50.934;6.776;2023-04-01T00:33:18;10.50;1.00
4826;DHT22;2427;50.934;6.776;2023-04-01T00:35:44;10.50;1.00
4826;DHT22;2427;50.934;6.776;2023-04-01T00:38:10;10.50;1.00
4826;DHT22;2427;50.934;6.776;2023-04-01T00:40:44;10.50;1.00
4826;DHT22;2427;50.934;6.776;2023-04-01T00:43:19;10.40;1.00
4826;DHT22;2427;50.934;6.776;2023-04-01T00:45:47;10.50;1.00
4826;DHT22;2427;50.934;6.776;2023-04-01T00:48:17;10.40;1.00
4826;DHT22;2427;50.934;6.776;2023-04-01T00:50:48;10.40;1.00
4826;DHT22;2427;50.934;6.776;2023-04-01T00:53:16;10.40;1.00
4826;DHT22;2427;50.934;6.776;2023-04-01T00:55:49;10.50;1.00
4826;DHT22;2427;50.934;6.776;2023-04-01T00:58:17;10.40;1.00
4826;DHT22;2427;50.934;6.776;2023-04-01T01:11:08;10.50;1.00
4826;DHT22;2427;50.934;6.776;2023-04-01T01:13:46;10.60;1.00
4826;DHT22;2427;50.934;6.776;2023-04-01T01:16:30;10.60;1.00
4826;DHT22;2427;50.934;6.776;2023-04-01T01:19:08;10.50;1.00
4826;DHT22;2427;50.934;6.776;2023-04-01T01:22:11;10.50;1.00
4826;DHT22;2427;50.934;6.776;2023-04-01T01:27:40;10.40;1.00
4826;DHT22;2427;50.934;6.776;2023-04-01T01:30:21;10.50;1.00
4826;DHT22;2427;50.934;6.776;2023-04-01T01:35:53;10.40;1.00
4826;DHT22;2427;50.934;6.776;2023-04-01T01:38:24;10.30;1.00
4826;DHT22;2427;50.934;6.776;2023-04-01T01:40:56;10.30;1.00
4826;DHT22;2427;50.934;6.776;2023-04-01T01:43:29;10.30;1.00
4826;DHT22;2427;50.934;6.776;2023-04-01T01:45:59;10.20;30.50
4826;DHT22;2427;50.934;6.776;2023-04-01T01:48:27;10.20;99.90
4826;DHT22;2427;50.934;6.776;2023-04-01T01:50:55;10.10;99.90
4826;DHT22;2427;50.934;6.776;2023-04-01T01:53:30;10.10;99.90
4826;DHT22;2427;50.934;6.776;2023-04-01T01:55:58;10.00;1.00
4826;DHT22;2427;50.934;6.776;2023-04-01T01:58:42;10.00;1.00
4826;DHT22;2427;50.934;6.776;2023-04-01T02:01:13;9.90;1.00
4826;DHT22;2427;50.934;6.776;2023-04-01T02:03:42;9.80;36.50
4826;DHT22;2427;50.934;6.776;2023-04-01T02:06:15;9.80;1.00
4826;DHT22;2427;50.934;6.776;2023-04-01T02:08:55;9.60;1.00
4826;DHT22;2427;50.934;6.776;2023-04-01T02:11:27;9.60;99.90
4826;DHT22;2427;50.934;6.776;2023-04-01T02:14:02;9.50;99.90
4826;DHT22;2427;50.934;6.776;2023-04-01T02:19:03;9.40;99.90
4826;DHT22;2427;50.934;6.776;2023-04-01T02:21:33;9.40;99.90
4826;DHT22;2427;50.934;6.776;2023-04-01T02:24:02;9.30;99.90
4826;DHT22;2427;50.934;6.776;2023-04-01T02:26:30;9.20;1.00
4826;DHT22;2427;50.934;6.776;2023-04-01T02:28:56;9.20;5.10
4826;DHT22;2427;50.934;6.776;2023-04-01T02:31:23;9.20;61.10
4826;DHT22;2427;50.934;6.776;2023-04-01T02:33:50;9.10;1.00
4826;DHT22;2427;50.934;6.776;2023-04-01T02:36:16;9.10;1.00
4826;DHT22;2427;50.934;6.776;2023-04-01T02:38:43;9.10;99.90
4826;DHT22;2427;50.934;6.776;2023-04-01T02:41:10;9.10;1.00
4826;DHT22;2427;50.934;6.776;2023-04-01T02:43:35;9.00;1.00
4826;DHT22;2427;50.934;6.776;2023-04-01T02:46:04;9.00;1.00
4826;DHT22;2427;50.934;6.776;2023-04-01T02:48:30;9.00;1.00
4826;DHT22;2427;50.934;6.776;2023-04-01T02:50:56;9.10;99.90
4826;DHT22;2427;50.934;6.776;2023-04-01T02:53:22;9.00;99.90
4826;DHT22;2427;50.934;6.776;2023-04-01T02:55:47;9.00;99.90
4826;DHT22;2427;50.934;6.776;2023-04-01T02:58:16;9.10;99.90
4826;DHT22;2427;50.934;6.776;2023-04-01T03:00:42;9.10;99.90
4826;DHT22;2427;50.934;6.776;2023-04-01T03:03:08;9.00;99.90
4826;DHT22;2427;50.934;6.776;2023-04-01T03:05:34;9.10;99.90
4826;DHT22;2427;50.934;6.776;2023-04-01T03:08:02;9.10;1.00
4826;DHT22;2427;50.934;6.776;2023-04-01T03:10:28;9.10;1.00
4826;DHT22;2427;50.934;6.776;2023-04-01T03:12:57;9.20;99.90
4826;DHT22;2427;50.934;6.776;2023-04-01T03:15:23;9.20;99.90
4826;DHT22;2427;50.934;6.776;2023-04-01T03:18:01;9.20;99.90
4826;DHT22;2427;50.934;6.776;2023-04-01T03:20:33;9.20;99.90
4826;DHT22;2427;50.934;6.776;2023-04-01T03:22:58;9.20;1.00
4826;DHT22;2427;50.934;6.776;2023-04-01T03:25:31;9.20;1.00
4826;DHT22;2427;50.934;6.776;2023-04-01T03:28:00;9.20;99.90
4826;DHT22;2427;50.934;6.776;2023-04-01T03:30:27;9.30;99.90
4826;DHT22;2427;50.934;6.776;2023-04-01T03:32:53;9.30;99.90
4826;DHT22;2427;50.934;6.776;2023-04-01T03:35:19;9.30;1.00
4826;DHT22;2427;50.934;6.776;2023-04-01T03:37:44;9.30;1.00
4826;DHT22;2427;50.934;6.776;2023-04-01T03:40:18;9.30;1.00
4826;DHT22;2427;50.934;6.776;2023-04-01T03:42:48;9.30;99.90
4826;DHT22;2427;50.934;6.776;2023-04-01T03:45:13;9.30;99.90
4826;DHT22;2427;50.934;6.776;2023-04-01T03:47:40;9.30;99.90
4826;DHT22;2427;50.934;6.776;2023-04-01T03:50:06;9.30;99.90
4826;DHT22;2427;50.934;6.776;2023-04-01T03:52:32;9.40;99.90
4826;DHT22;2427;50.934;6.776;2023-04-01T03:54:58;9.40;99.90
4826;DHT22;2427;50.934;6.776;2023-04-01T03:57:24;9.40;99.90
4826;DHT22;2427;50.934;6.776;2023-04-01T03:59:49;9.40;99.90
4826;DHT22;2427;50.934;6.776;2023-04-01T04:02:18;9.40;99.90
4826;DHT22;2427;50.934;6.776;2023-04-01T04:04:43;9.50;99.90
4826;DHT22;2427;50.934;6.776;2023-04-01T04:07:10;9.50;1.00
4826;DHT22;2427;50.934;6.776;2023-04-01T04:09:35;9.50;1.00
4826;DHT22;2427;50.934;6.776;2023-04-01T04:12:01;9.60;1.00
4826;DHT22;2427;50.934;6.776;2023-04-01T04:14:27;9.60;1.00
4826;DHT22;2427;50.934;6.776;2023-04-01T04:16:53;9.60;1.00
4826;DHT22;2427;50.934;6.776;2023-04-01T04:19:18;9.60;99.90
4826;DHT22;2427;50.934;6.776;2023-04-01T04:21:44;9.50;99.90
4826;DHT22;2427;50.934;6.776;2023-04-01T04:24:10;9.50;99.90
4826;DHT22;2427;50.934;6.776;2023-04-01T04:26:36;9.50;1.00
4826;DHT22;2427;50.934;6.776;2023-04-01T04:29:02;9.50;1.00
4826;DHT22;2427;50.934;6.776;2023-04-01T04:31:31;9.50;1.00
4826;DHT22;2427;50.934;6.776;2023-04-01T04:33:58;9.40;4.50
4826;DHT22;2427;50.934;6.776;2023-04-01T04:36:27;9.40;99.90
4826;DHT22;2427;50.934;6.776;2023-04-01T04:39:02;9.30;99.90
4826;DHT22;2427;50.934;6.776;2023-04-01T04:41:34;9.30;5.90
4826;DHT22;2427;50.934;6.776;2023-04-01T04:44:05;9.30;1.00
4826;DHT22;2427;50.934;6.776;2023-04-01T04:46:31;9.20;1.00
4826;DHT22;2427;50.934;6.776;2023-04-01T04:48:57;9.10;1.00
4826;DHT22;2427;50.934;6.776;2023-04-01T04:51:25;9.10;1.00
4826;DHT22;2427;50.934;6.776;2023-04-01T04:53:51;9.00;1.00
4826;DHT22;2427;50.934;6.776;2023-04-01T04:56:23;9.00;99.90
4826;DHT22;2427;50.934;6.776;2023-04-01T04:58:52;9.00;1.00
4826;DHT22;2427;50.934;6.776;2023-04-01T05:01:21;9.00;1.00
4826;DHT22;2427;50.934;6.776;2023-04-01T05:03:50;8.90;1.00
4826;DHT22;2427;50.934;6.776;2023-04-01T05:06:17;8.90;1.00
4826;DHT22;2427;50.934;6.776;2023-04-01T05:08:46;9.00;1.00
4826;DHT22;2427;50.934;6.776;2023-04-01T05:11:16;8.90;9.20
4826;DHT22;2427;50.934;6.776;2023-04-01T05:13:45;8.90;31.90
4826;DHT22;2427;50.934;6.776;2023-04-01T05:16:14;8.90;50.10
4826;DHT22;2427;50.934;6.776;2023-04-01T05:18:40;8.90;68.60
4826;DHT22;2427;50.934;6.776;2023-04-01T05:21:08;8.90;70.40
4826;DHT22;2427;50.934;6.776;2023-04-01T05:23:35;8.90;94.70
4826;DHT22;2427;50.934;6.776;2023-04-01T05:26:18;8.90;91.40
4826;DHT22;2427;50.934;6.776;2023-04-01T05:28:44;9.00;99.90
4826;DHT22;2427;50.934;6.776;2023-04-01T05:31:10;8.90;99.90
4826;DHT22;2427;50.934;6.776;2023-04-01T05:33:35;8.90;99.90
4826;DHT22;2427;50.934;6.776;2023-04-01T05:36:13;8.90;99.90
4826;DHT22;2427;50.934;6.776;2023-04-01T05:38:39;8.90;99.90
4826;DHT22;2427;50.934;6.776;2023-04-01T05:41:05;8.90;99.90
4826;DHT22;2427;50.934;6.776;2023-04-01T05:43:31;8.90;99.90
4826;DHT22;2427;50.934;6.776;2023-04-01T05:45:57;8.90;99.90
4826;DHT22;2427;50.934;6.776;2023-04-01T05:48:23;8.90;99.90
4826;DHT22;2427;50.934;6.776;2023-04-01T05:50:48;8.90;99.90
4826;DHT22;2427;50.934;6.776;2023-04-01T05:53:14;8.90;99.90
4826;DHT22;2427;50.934;6.776;2023-04-01T05:55:40;8.90;99.90
4826;DHT22;2427;50.934;6.776;2023-04-01T05:58:05;8.90;99.90
4826;DHT22;2427;50.934;6.776;2023-04-01T06:00:31;8.90;99.90
4826;DHT22;2427;50.934;6.776;2023-04-01T06:02:59;8.80;99.90
4826;DHT22;2427;50.934;6.776;2023-04-01T06:05:28;8.80;99.90
4826;DHT22;2427;50.934;6.776;2023-04-01T06:08:16;8.80;99.90
4826;DHT22;2427;50.934;6.776;2023-04-01T06:30:13;8.90;99.90
4826;DHT22;2427;50.934;6.776;2023-04-01T06:33:08;9.00;99.90
4826;DHT22;2427;50.934;6.776;2023-04-01T06:41:18;9.10;99.90
4826;DHT22;2427;50.934;6.776;2023-04-01T06:53:06;9.10;99.90
4826;DHT22;2427;50.934;6.776;2023-04-01T06:55:46;9.10;99.90
4826;DHT22;2427;50.934;6.776;2023-04-01T06:58:28;9.10;99.90
4826;DHT22;2427;50.934;6.776;2023-04-01T07:00:58;9.20;99.90
4826;DHT22;2427;50.934;6.776;2023-04-01T07:06:58;9.20;99.90
4826;DHT22;2427;50.934;6.776;2023-04-01T07:09:30;9.10;99.90
4826;DHT22;2427;50.934;6.776;2023-04-01T07:12:06;9.10;99.90
4826;DHT22;2427;50.934;6.776;2023-04-01T07:14:40;9.20;99.90
4826;DHT22;2427;50.934;6.776;2023-04-01T07:17:20;9.20;99.90
4826;DHT22;2427;50.934;6.776;2023-04-01T07:20:03;9.20;99.90
4826;DHT22;2427;50.934;6.776;2023-04-01T07:22:43;9.20;99.90
4826;DHT22;2427;50.934;6.776;2023-04-01T07:25:17;9.20;99.90
4826;DHT22;2427;50.934;6.776;2023-04-01T07:27:45;9.20;99.90
4826;DHT22;2427;50.934;6.776;2023-04-01T07:30:17;9.10;99.90
4826;DHT22;2427;50.934;6.776;2023-04-01T07:32:59;9.20;99.90
4826;DHT22;2427;50.934;6.776;2023-04-01T07:36:12;9.20;99.90
4826;DHT22;2427;50.934;6.776;2023-04-01T07:43:44;9.20;99.90
4826;DHT22;2427;50.934;6.776;2023-04-01T07:48:56;9.20;99.90
4826;DHT22;2427;50.934;6.776;2023-04-01T07:51:35;9.20;99.90
4826;DHT22;2427;50.934;6.776;2023-04-01T07:54:29;9.20;99.90
4826;DHT22;2427;50.934;6.776;2023-04-01T08:10:57;9.20;99.90
4826;DHT22;2427;50.934;6.776;2023-04-01T08:16:23;9.30;99.90
4826;DHT22;2427;50.934;6.776;2023-04-01T08:21:21;9.20;99.90
4826;DHT22;2427;50.934;6.776;2023-04-01T08:23:52;9.30;99.90
4826;DHT22;2427;50.934;6.776;2023-04-01T08:26:38;9.30;99.90
4826;DHT22;2427;50.934;6.776;2023-04-01T08:29:13;9.30;99.90
4826;DHT22;2427;50.934;6.776;2023-04-01T08:34:37;9.30;99.90
4826;DHT22;2427;50.934;6.776;2023-04-01T08:37:14;9.40;99.90
4826;DHT22;2427;50.934;6.776;2023-04-01T08:39:47;9.40;99.90
4826;DHT22;2427;50.934;6.776;2023-04-01T08:42:50;9.30;99.90
4826;DHT22;2427;50.934;6.776;2023-04-01T08:54:23;9.40;99.90
4826;DHT22;2427;50.934;6.776;2023-04-01T09:00:41;9.40;99.90
4826;DHT22;2427;50.934;6.776;2023-04-01T09:02:50;9.40;99.90
4826;DHT22;2427;50.934;6.776;2023-04-01T09:19:11;9.60;99.90
4826;DHT22;2427;50.934;6.776;2023-04-01T09:25:05;9.60;99.90
4826;DHT22;2427;50.934;6.776;2023-04-01T09:35:24;9.60;99.90
4826;DHT22;2427;50.934;6.776;2023-04-01T09:38:08;9.60;99.90
4826;DHT22;2427;50.934;6.776;2023-04-01T09:46:44;9.50;99.90
4826;DHT22;2427;50.934;6.776;2023-04-01T09:57:24;9.60;99.90
4826;DHT22;2427;50.934;6.776;2023-04-01T10:03:13;9.70;99.90
4826;DHT22;2427;50.934;6.776;2023-04-01T10:09:15;9.70;99.90
4826;DHT22;2427;50.934;6.776;2023-04-01T10:17:33;9.90;99.90
4826;DHT22;2427;50.934;6.776;2023-04-01T10:20:19;9.90;99.90
4826;DHT22;2427;50.934;6.776;2023-04-01T10:34:21;10.00;14.90
4826;DHT22;2427;50.934;6.776;2023-04-01T10:36:57;10.10;23.90
4826;DHT22;2427;50.934;6.776;2023-04-01T10:53:49;10.30;1.00
4826;DHT22;2427;50.934;6.776;2023-04-01T11:02:00;10.20;1.00
4826;DHT22;2427;50.934;6.776;2023-04-01T11:07:43;10.20;1.00
4826;DHT22;2427;50.934;6.776;2023-04-01T11:10:20;10.20;1.00
4826;DHT22;2427;50.934;6.776;2023-04-01T11:24:39;10.30;1.00
4826;DHT22;2427;50.934;6.776;2023-04-01T11:30:07;10.40;1.00
4826;DHT22;2427;50.934;6.776;2023-04-01T11:32:46;10.50;1.00
4826;DHT22;2427;50.934;6.776;2023-04-01T11:46:28;10.70;1.00
4826;DHT22;2427;50.934;6.776;2023-04-01T11:51:36;10.70;1.00
4826;DHT22;2427;50.934;6.776;2023-04-01T11:54:33;10.80;1.00
4826;DHT22;2427;50.934;6.776;2023-04-01T11:57:18;10.80;1.00
4826;DHT22;2427;50.934;6.776;2023-04-01T12:02:20;10.90;1.00
4826;DHT22;2427;50.934;6.776;2023-04-01T12:13:42;11.30;1.00
4826;DHT22;2427;50.934;6.776;2023-04-01T12:16:26;11.50;99.90
4826;DHT22;2427;50.934;6.776;2023-04-01T12:19:15;11.60;99.90
4826;DHT22;2427;50.934;6.776;2023-04-01T12:24:47;11.60;99.90
4826;DHT22;2427;50.934;6.776;2023-04-01T12:27:33;11.50;99.90
4826;DHT22;2427;50.934;6.776;2023-04-01T12:36:25;11.40;1.00
4826;DHT22;2427;50.934;6.776;2023-04-01T12:41:59;11.40;99.90
4826;DHT22;2427;50.934;6.776;2023-04-01T12:53:15;11.40;99.90
4826;DHT22;2427;50.934;6.776;2023-04-01T12:55:48;11.50;99.90
4826;DHT22;2427;50.934;6.776;2023-04-01T13:01:19;11.30;99.90
4826;DHT22;2427;50.934;6.776;2023-04-01T13:10:38;11.20;99.90
4826;DHT22;2427;50.934;6.776;2023-04-01T13:12:36;11.20;99.90
4826;DHT22;2427;50.934;6.776;2023-04-01T13:32:27;11.10;99.90
4826;DHT22;2427;50.934;6.776;2023-04-01T13:38:41;11.10;99.90
4826;DHT22;2427;50.934;6.776;2023-04-01T13:44:24;11.20;99.90
4826;DHT22;2427;50.934;6.776;2023-04-01T14:01:00;11.60;18.50
4826;DHT22;2427;50.934;6.776;2023-04-01T14:03:41;11.60;79.20
4826;DHT22;2427;50.934;6.776;2023-04-01T14:11:51;11.30;99.90
4826;DHT22;2427;50.934;6.776;2023-04-01T14:20:03;11.30;99.90
4826;DHT22;2427;50.934;6.776;2023-04-01T14:25:41;11.10;1.00
4826;DHT22;2427;50.934;6.776;2023-04-01T14:31:04;10.90;1.00
4826;DHT22;2427;50.934;6.776;2023-04-01T14:42:07;10.70;1.00
4826;DHT22;2427;50.934;6.776;2023-04-01T14:50:06;10.80;1.00
4826;DHT22;2427;50.934;6.776;2023-04-01T14:52:37;10.80;1.00
4826;DHT22;2427;50.934;6.776;2023-04-01T14:58:19;10.90;1.00
4826;DHT22;2427;50.934;6.776;2023-04-01T15:03:27;10.80;1.00
4826;DHT22;2427;50.934;6.776;2023-04-01T15:09:46;10.70;1.00
4826;DHT22;2427;50.934;6.776;2023-04-01T15:15:09;10.70;1.00
4826;DHT22;2427;50.934;6.776;2023-04-01T15:18:09;10.80;1.00
4826;DHT22;2427;50.934;6.776;2023-04-01T15:20:50;10.80;1.00
4826;DHT22;2427;50.934;6.776;2023-04-01T15:34:42;10.70;99.90
4826;DHT22;2427;50.934;6.776;2023-04-01T15:40:01;10.60;99.90
4826;DHT22;2427;50.934;6.776;2023-04-01T15:53:17;10.80;99.90
4826;DHT22;2427;50.934;6.776;2023-04-01T15:58:26;10.80;99.90
4826;DHT22;2427;50.934;6.776;2023-04-01T16:15:33;10.50;1.00
4826;DHT22;2427;50.934;6.776;2023-04-01T16:18:20;10.40;1.00
4826;DHT22;2427;50.934;6.776;2023-04-01T16:23:55;10.30;1.00
4826;DHT22;2427;50.934;6.776;2023-04-01T16:26:44;10.30;1.00
4826;DHT22;2427;50.934;6.776;2023-04-01T16:29:29;10.30;1.00
4826;DHT22;2427;50.934;6.776;2023-04-01T16:32:17;10.30;1.00
4826;DHT22;2427;50.934;6.776;2023-04-01T16:35:01;10.20;1.00
4826;DHT22;2427;50.934;6.776;2023-04-01T16:37:36;10.10;1.00
4826;DHT22;2427;50.934;6.776;2023-04-01T16:43:25;10.20;1.00
4826;DHT22;2427;50.934;6.776;2023-04-01T16:49:04;10.20;1.00
4826;DHT22;2427;50.934;6.776;2023-04-01T16:54:30;10.20;1.00
4826;DHT22;2427;50.934;6.776;2023-04-01T16:59:45;10.20;1.00
4826;DHT22;2427;50.934;6.776;2023-04-01T17:02:14;10.10;1.00
4826;DHT22;2427;50.934;6.776;2023-04-01T17:04:48;10.10;1.00
4826;DHT22;2427;50.934;6.776;2023-04-01T17:13:28;10.00;1.00
4826;DHT22;2427;50.934;6.776;2023-04-01T17:16:05;10.00;1.00
4826;DHT22;2427;50.934;6.776;2023-04-01T17:21:57;10.00;1.00
4826;DHT22;2427;50.934;6.776;2023-04-01T17:24:52;9.90;1.00
4826;DHT22;2427;50.934;6.776;2023-04-01T17:27:35;9.90;1.00
4826;DHT22;2427;50.934;6.776;2023-04-01T17:32:54;9.90;49.80
4826;DHT22;2427;50.934;6.776;2023-04-01T17:49:32;9.80;99.90
4826;DHT22;2427;50.934;6.776;2023-04-01T17:52:43;9.70;99.90
4826;DHT22;2427;50.934;6.776;2023-04-01T17:58:20;9.50;99.90
4826;DHT22;2427;50.934;6.776;2023-04-01T18:03:54;9.40;99.90
4826;DHT22;2427;50.934;6.776;2023-04-01T18:14:34;9.20;99.90
4826;DHT22;2427;50.934;6.776;2023-04-01T18:19:49;9.10;99.90
4826;DHT22;2427;50.934;6.776;2023-04-01T18:22:27;9.10;99.90
4826;DHT22;2427;50.934;6.776;2023-04-01T18:25:01;9.10;99.90
4826;DHT22;2427;50.934;6.776;2023-04-01T18:27:39;9.10;99.90
4826;DHT22;2427;50.934;6.776;2023-04-01T18:30:24;9.10;99.90
4826;DHT22;2427;50.934;6.776;2023-04-01T18:32:59;9.00;99.90
4826;DHT22;2427;50.934;6.776;2023-04-01T18:47:05;9.00;99.90
4826;DHT22;2427;50.934;6.776;2023-04-01T18:50:02;9.00;99.90
4826;DHT22;2427;50.934;6.776;2023-04-01T18:52:37;9.00;99.90
4826;DHT22;2427;50.934;6.776;2023-04-01T18:57:58;9.00;99.90
4826;DHT22;2427;50.934;6.776;2023-04-01T19:00:43;9.00;99.90
4826;DHT22;2427;50.934;6.776;2023-04-01T19:03:37;8.90;99.90
4826;DHT22;2427;50.934;6.776;2023-04-01T19:06:20;8.90;99.90
4826;DHT22;2427;50.934;6.776;2023-04-01T19:08:47;8.90;99.90
4826;DHT22;2427;50.934;6.776;2023-04-01T19:11:33;8.90;99.90
4826;DHT22;2427;50.934;6.776;2023-04-01T19:14:39;8.90;99.90
4826;DHT22;2427;50.934;6.776;2023-04-01T19:17:15;8.90;99.90
4826;DHT22;2427;50.934;6.776;2023-04-01T19:20:26;8.90;99.90
4826;DHT22;2427;50.934;6.776;2023-04-01T19:25:46;8.90;99.90
4826;DHT22;2427;50.934;6.776;2023-04-01T19:28:31;8.90;99.90
4826;DHT22;2427;50.934;6.776;2023-04-01T19:37:25;8.80;99.90
4826;DHT22;2427;50.934;6.776;2023-04-01T19:40:06;8.80;99.90
4826;DHT22;2427;50.934;6.776;2023-04-01T19:43:01;8.80;99.90
4826;DHT22;2427;50.934;6.776;2023-04-01T19:46:08;8.80;99.90
4826;DHT22;2427;50.934;6.776;2023-04-01T19:48:42;8.80;99.90
4826;DHT22;2427;50.934;6.776;2023-04-01T19:51:21;8.80;99.90
4826;DHT22;2427;50.934;6.776;2023-04-01T19:54:17;8.70;99.90
4826;DHT22;2427;50.934;6.776;2023-04-01T20:00:18;8.60;99.90
4826;DHT22;2427;50.934;6.776;2023-04-01T20:05:55;8.70;99.90
4826;DHT22;2427;50.934;6.776;2023-04-01T20:08:25;8.70;99.90
4826;DHT22;2427;50.934;6.776;2023-04-01T20:13:43;8.60;99.90
4826;DHT22;2427;50.934;6.776;2023-04-01T20:16:12;8.60;99.90
4826;DHT22;2427;50.934;6.776;2023-04-01T20:19:00;8.60;99.90
4826;DHT22;2427;50.934;6.776;2023-04-01T20:21:38;8.60;99.90
4826;DHT22;2427;50.934;6.776;2023-04-01T20:24:22;8.60;99.90
4826;DHT22;2427;50.934;6.776;2023-04-01T20:26:58;8.60;99.90
4826;DHT22;2427;50.934;6.776;2023-04-01T20:30:04;8.60;99.90
4826;DHT22;2427;50.934;6.776;2023-04-01T20:38:37;8.60;99.90
4826;DHT22;2427;50.934;6.776;2023-04-01T20:57:14;8.70;99.90
4826;DHT22;2427;50.934;6.776;2023-04-01T21:00:13;8.60;99.90
4826;DHT22;2427;50.934;6.776;2023-04-01T21:03:23;8.70;99.90
4826;DHT22;2427;50.934;6.776;2023-04-01T21:11:51;8.60;99.90
4826;DHT22;2427;50.934;6.776;2023-04-01T21:14:49;8.50;99.90
4826;DHT22;2427;50.934;6.776;2023-04-01T21:22:53;8.60;99.90
4826;DHT22;2427;50.934;6.776;2023-04-01T21:28:12;8.50;99.90
4826;DHT22;2427;50.934;6.776;2023-04-01T21:30:59;8.50;99.90
4826;DHT22;2427;50.934;6.776;2023-04-01T21:33:37;8.50;99.90
4826;DHT22;2427;50.934;6.776;2023-04-01T21:36:48;8.50;99.90
4826;DHT22;2427;50.934;6.776;2023-04-01T21:39:27;8.50;99.90
4826;DHT22;2427;50.934;6.776;2023-04-01T21:45:06;8.50;99.90
4826;DHT22;2427;50.934;6.776;2023-04-01T21:53:26;8.50;99.90
4826;DHT22;2427;50.934;6.776;2023-04-01T22:18:25;8.60;99.90
4826;DHT22;2427;50.934;6.776;2023-04-01T22:23:47;8.70;99.90
4826;DHT22;2427;50.934;6.776;2023-04-01T22:26:24;8.70;99.90
4826;DHT22;2427;50.934;6.776;2023-04-01T22:29:11;8.70;99.90
4826;DHT22;2427;50.934;6.776;2023-04-01T22:32:06;8.80;99.90
4826;DHT22;2427;50.934;6.776;2023-04-01T22:43:09;8.80;99.90
4826;DHT22;2427;50.934;6.776;2023-04-01T22:48:40;8.80;99.90
4826;DHT22;2427;50.934;6.776;2023-04-01T22:54:02;8.80;99.90
4826;DHT22;2427;50.934;6.776;2023-04-01T22:56:37;8.80;99.90
4826;DHT22;2427;50.934;6.776;2023-04-01T22:59:24;8.80;99.90
4826;DHT22;2427;50.934;6.776;2023-04-01T23:04:39;8.70;99.90
4826;DHT22;2427;50.934;6.776;2023-04-01T23:07:36;8.70;99.90
4826;DHT22;2427;50.934;6.776;2023-04-01T23:13:12;8.60;99.90
4826;DHT22;2427;50.934;6.776;2023-04-01T23:15:40;8.60;99.90
4826;DHT22;2427;50.934;6.776;2023-04-01T23:18:18;8.60;99.90
4826;DHT22;2427;50.934;6.776;2023-04-01T23:29:00;8.50;99.90
4826;DHT22;2427;50.934;6.776;2023-04-01T23:31:38;8.50;99.90
4826;DHT22;2427;50.934;6.776;2023-04-01T23:36:44;8.40;99.90
4826;DHT22;2427;50.934;6.776;2023-04-01T23:39:20;8.40;99.90
4826;DHT22;2427;50.934;6.776;2023-04-01T23:41:48;8.40;99.90
4826;DHT22;2427;50.934;6.776;2023-04-01T23:44:15;8.40;99.90
4826;DHT22;2427;50.934;6.776;2023-04-01T23:46:42;8.30;99.90
4826;DHT22;2427;50.934;6.776;2023-04-01T23:52:36;8.20;99.90
4826;DHT22;2427;50.934;6.776;2023-04-01T23:57:36;8.20;99.90
